Time;durP1;ratioP1;P1;durP2;ratioP2;P2;SDS_P1;SDS_P2;PMS_P1;PMS_P2;Temp;Humidity;BMP_temperature;BMP_pressure;BME280_temperature;BME280_humidity;BME280_pressure;Samples;Min_cycle;Max_cycle;Signal;HPM_P1;HPM_P2
2024/03/21 00:02:24;;;;;;;;;;;;;;;17.64;41.74;101482.97;5053278;27;100453;-74
2024/03/21 00:04:49;;;;;;;;;;;;;;;17.72;41.47;101472.75;5052711;27;96888;-73
2024/03/21 00:07:15;;;;;;;;;;;;;;;17.59;41.70;101480.47;5044945;27;99930;-74
2024/03/21 00:09:41;;;;;;;;;;;;;;;17.65;41.60;101474.88;5051627;27;99223;-75
2024/03/21 00:12:07;;;;;;;;;;;;;;;17.66;41.58;101468.56;5051559;27;98596;-75
2024/03/21 00:14:33;;;;;;;;;;;;;;;17.54;41.95;101469.19;5045802;27;96765;-73
2024/03/21 00:17:00;;;;;;;;;;;;;;;17.53;41.87;101465.66;5049902;27;96955;-74
2024/03/21 00:19:26;;;;;;;;;;;;;;;17.37;42.25;101462.06;5051616;27;98953;-74
2024/03/21 00:21:52;;;;;;;;;;;;;;;17.52;42.03;101463.09;5053439;27;101731;-73
2024/03/21 00:24:19;;;;;;;;;;;;;;;17.64;41.64;101457.13;5053158;27;97282;-73
2024/03/21 00:26:46;;;;;;;;;;;;;;;17.62;41.85;101459.00;5049604;27;96816;-73
2024/03/21 00:29:11;;;;;;;;;;;;;;;17.62;41.99;101456.31;5050218;27;98092;-74
2024/03/21 00:31:38;;;;;;;;;;;;;;;17.65;41.89;101457.97;5050608;27;99420;-74
2024/03/21 00:34:05;;;;;;;;;;;;;;;17.55;42.11;101462.91;5051809;27;96837;-74
2024/03/21 00:36:32;;;;;;;;;;;;;;;17.49;42.36;101456.06;5052895;27;96918;-73
2024/03/21 00:38:57;;;;;;;;;;;;;;;17.52;42.31;101461.25;5052435;27;99341;-73
2024/03/21 00:41:24;;;;;;;;;;;;;;;17.64;42.13;101459.78;5052728;27;98990;-74
2024/03/21 00:43:49;;;;;;;;;;;;;;;17.56;42.33;101450.41;5052712;27;97323;-73
2024/03/21 00:46:16;;;;;;;;;;;;;;;17.31;43.39;101462.41;5052611;27;97300;-74
2024/03/21 00:48:41;;;;;;;;;;;;;;;17.36;44.17;101468.34;5051614;27;98814;-74
2024/03/21 00:51:09;;;;;;;;;;;;;;;17.54;43.53;101461.16;5051722;27;98770;-74
2024/03/21 00:53:35;;;;;;;;;;;;;;;17.58;43.58;101449.41;5052793;27;96853;-74
2024/03/21 00:56:01;;;;;;;;;;;;;;;17.63;43.09;101450.03;5052823;27;96856;-74
2024/03/21 00:58:26;;;;;;;;;;;;;;;17.56;43.73;101453.94;5047571;27;102021;-74
2024/03/21 01:00:52;;;;;;;;;;;;;;;17.57;44.30;101458.34;5051349;27;97589;-74
2024/03/21 01:03:19;;;;;;;;;;;;;;;17.52;44.42;101449.72;5050673;27;98186;-74
2024/03/21 01:05:51;;;;;;;;;;;;;;;17.64;43.89;101446.41;5051530;27;97157;-74
2024/03/21 01:08:18;;;;;;;;;;;;;;;17.79;43.32;101448.25;5045620;27;98985;-74
2024/03/21 01:10:46;;;;;;;;;;;;;;;17.69;43.82;101441.69;5043594;27;99412;-74
2024/03/21 01:13:12;;;;;;;;;;;;;;;17.52;44.26;101439.03;5052227;27;96898;-75
2024/03/21 01:15:38;;;;;;;;;;;;;;;17.48;44.76;101445.47;5051327;27;97702;-74
2024/03/21 01:18:06;;;;;;;;;;;;;;;17.49;44.99;101444.53;5047693;27;98890;-74
2024/03/21 01:20:32;;;;;;;;;;;;;;;17.61;45.23;101443.91;5051488;27;99143;-73
2024/03/21 01:22:59;;;;;;;;;;;;;;;17.65;44.51;101441.94;5051678;27;96745;-74
2024/03/21 01:25:26;;;;;;;;;;;;;;;17.87;46.31;101440.69;5051121;27;96839;-73
2024/03/21 01:27:54;;;;;;;;;;;;;;;17.97;47.03;101437.50;5052811;27;100441;-74
2024/03/21 01:30:19;;;;;;;;;;;;;;;17.78;48.88;101438.53;5050995;27;98054;-74
2024/03/21 01:32:45;;;;;;;;;;;;;;;17.76;47.32;101427.03;5051819;27;97418;-74
2024/03/21 01:35:11;;;;;;;;;;;;;;;17.71;48.90;101428.25;5046204;27;96828;-74
2024/03/21 01:37:37;;;;;;;;;;;;;;;17.68;47.27;101423.91;5050085;27;97679;-75
2024/03/21 01:40:06;;;;;;;;;;;;;;;17.47;49.44;101425.03;5050457;27;98793;-74
2024/03/21 01:42:33;;;;;;;;;;;;;;;17.52;47.60;101423.84;5050255;27;96853;-73
2024/03/21 01:45:00;;;;;;;;;;;;;;;17.51;47.50;101419.47;5050706;27;96859;-74
2024/03/21 01:47:27;;;;;;;;;;;;;;;17.35;46.90;101418.53;5050537;27;99000;-74
2024/03/21 01:49:52;;;;;;;;;;;;;;;16.88;49.23;101423.66;5050183;27;99069;-73
2024/03/21 01:52:19;;;;;;;;;;;;;;;16.94;49.44;101418.03;5049910;27;97624;-74
2024/03/21 01:54:44;;;;;;;;;;;;;;;17.10;48.19;101415.44;5051954;27;97265;-74
2024/03/21 01:57:11;;;;;;;;;;;;;;;17.11;48.32;101414.50;5051333;27;100293;-74
2024/03/21 01:59:37;;;;;;;;;;;;;;;17.01;49.79;101411.41;5051256;27;99268;-73
2024/03/21 02:02:05;;;;;;;;;;;;;;;17.02;50.28;101413.16;5046981;27;97096;-73
2024/03/21 02:04:30;;;;;;;;;;;;;;;17.14;49.74;101411.66;5049152;27;97233;-73
2024/03/21 02:06:57;;;;;;;;;;;;;;;17.20;50.29;101410.50;5045524;27;98974;-74
2024/03/21 02:09:25;;;;;;;;;;;;;;;16.94;51.03;101414.47;5049331;27;99521;-73
2024/03/21 02:11:52;;;;;;;;;;;;;;;17.01;50.35;101406.09;5047916;27;96785;-74
2024/03/21 02:14:19;;;;;;;;;;;;;;;17.01;50.52;101399.88;5051079;27;97581;-73
2024/03/21 02:16:47;;;;;;;;;;;;;;;17.11;50.40;101398.47;5050288;27;99235;-75
2024/03/21 02:19:12;;;;;;;;;;;;;;;16.86;51.24;101398.88;5051035;27;98748;-74
2024/03/21 02:24:24;;;;;;;;;;;;;;;16.92;51.83;101395.91;5051136;27;96847;-74
2024/03/21 02:26:49;;;;;;;;;;;;;;;16.89;51.30;101395.19;5045545;27;100762;-74
2024/03/21 02:29:16;;;;;;;;;;;;;;;16.86;54.40;101392.69;5049350;27;99583;-74
2024/03/21 02:31:41;;;;;;;;;;;;;;;16.85;55.89;101386.47;5049045;27;96831;-73
2024/03/21 02:34:07;;;;;;;;;;;;;;;16.75;56.15;101393.22;5048572;27;97785;-74
2024/03/21 02:36:33;;;;;;;;;;;;;;;16.80;55.96;101387.66;5048623;27;97760;-74
2024/03/21 02:38:59;;;;;;;;;;;;;;;16.82;54.43;101385.75;5048197;27;97911;-74
2024/03/21 02:41:26;;;;;;;;;;;;;;;17.00;53.77;101385.66;5049368;27;96830;-73
2024/03/21 02:43:52;;;;;;;;;;;;;;;17.01;51.85;101382.06;5049247;27;96795;-74
2024/03/21 02:46:17;;;;;;;;;;;;;;;17.07;53.24;101373.72;5050343;27;99450;-74
2024/03/21 02:48:44;;;;;;;;;;;;;;;16.78;57.98;101376.19;5048556;27;97579;-74
2024/03/21 02:51:09;;;;;;;;;;;;;;;16.75;53.93;101379.88;5046365;27;97126;-73
2024/03/21 02:53:35;;;;;;;;;;;;;;;16.75;53.34;101377.19;5047686;27;97980;-74
2024/03/21 02:56:00;;;;;;;;;;;;;;;16.52;55.18;101378.34;5051437;27;101979;-72
2024/03/21 02:58:28;;;;;;;;;;;;;;;16.71;54.09;101375.63;5051699;27;101024;-74
2024/03/21 03:00:53;;;;;;;;;;;;;;;16.26;54.79;101379.63;5053714;27;96978;-72
2024/03/21 03:03:20;;;;;;;;;;;;;;;16.49;54.75;101374.94;5053438;27;96841;-73
2024/03/21 03:05:45;;;;;;;;;;;;;;;16.55;57.19;101380.84;5050620;27;98834;-73
2024/03/21 03:08:11;;;;;;;;;;;;;;;16.69;55.54;101388.19;5054030;27;99111;-73
2024/03/21 03:10:37;;;;;;;;;;;;;;;16.19;57.63;101394.19;5051729;27;96832;-73
2024/03/21 03:13:03;;;;;;;;;;;;;;;16.44;56.22;101388.53;5045146;27;96768;-73
2024/03/21 03:15:30;;;;;;;;;;;;;;;16.43;55.54;101385.94;5049547;27;99463;-74
2024/03/21 03:17:56;;;;;;;;;;;;;;;16.27;56.26;101394.69;5052364;27;99178;-73
2024/03/21 03:20:21;;;;;;;;;;;;;;;16.16;57.41;101382.81;5047067;27;96953;-74
2024/03/21 03:22:48;;;;;;;;;;;;;;;16.08;57.57;101390.34;5053629;27;97963;-73
2024/03/21 03:25:13;;;;;;;;;;;;;;;16.06;57.89;101382.41;5052220;27;99474;-74
2024/03/21 03:27:40;;;;;;;;;;;;;;;16.10;58.13;101381.31;5054568;27;100684;-74
2024/03/21 03:30:06;;;;;;;;;;;;;;;16.23;57.30;101379.78;5048482;27;96772;-74
2024/03/21 03:32:36;;;;;;;;;;;;;;;16.31;58.88;101387.41;5052826;27;96862;-74
2024/03/21 03:37:46;;;;;;;;;;;;;;;16.20;59.13;101379.94;5050199;27;97236;-74
2024/03/21 03:40:14;;;;;;;;;;;;;;;16.30;60.50;101388.34;5052244;27;96961;-74
2024/03/21 03:42:39;;;;;;;;;;;;;;;16.14;61.67;101377.56;5053516;27;97556;-74
2024/03/21 03:45:06;;;;;;;;;;;;;;;16.14;61.14;101385.56;5052581;27;100030;-74
2024/03/21 03:47:33;;;;;;;;;;;;;;;16.18;61.92;101386.28;5053007;27;98961;-73
2024/03/21 03:49:58;;;;;;;;;;;;;;;16.14;63.10;101380.25;5051798;27;98089;-74
2024/03/21 03:52:25;;;;;;;;;;;;;;;16.17;64.09;101382.75;5054051;27;96835;-74
2024/03/21 03:54:50;;;;;;;;;;;;;;;16.17;64.20;101387.19;5045647;27;97931;-74
2024/03/21 03:57:16;;;;;;;;;;;;;;;16.34;62.68;101377.44;5052671;27;101138;-74
2024/03/21 03:59:41;;;;;;;;;;;;;;;16.26;63.86;101384.97;5051589;27;99035;-74
2024/03/21 04:02:08;;;;;;;;;;;;;;;16.22;64.76;101386.03;5052998;27;97313;-74
2024/03/21 04:04:35;;;;;;;;;;;;;;;16.24;63.90;101386.84;5051745;27;96900;-75
2024/03/21 04:07:01;;;;;;;;;;;;;;;16.24;65.14;101386.84;5051135;27;98644;-74
2024/03/21 04:09:26;;;;;;;;;;;;;;;16.02;66.28;101388.81;5051134;27;97231;-75
2024/03/21 04:11:52;;;;;;;;;;;;;;;16.08;65.25;101385.84;5051886;27;96868;-75
2024/03/21 04:14:18;;;;;;;;;;;;;;;16.08;65.21;101385.00;5052008;27;98820;-74
2024/03/21 04:16:44;;;;;;;;;;;;;;;16.11;65.71;101383.03;5051072;27;97797;-73
2024/03/21 04:19:09;;;;;;;;;;;;;;;16.17;65.29;101374.75;5053245;27;96708;-73
2024/03/21 04:21:37;;;;;;;;;;;;;;;16.09;64.51;101371.56;5051897;27;97636;-74
2024/03/21 04:24:02;;;;;;;;;;;;;;;16.00;65.57;101374.69;5052714;27;98339;-74
2024/03/21 04:26:28;;;;;;;;;;;;;;;16.20;65.64;101377.28;5044282;27;97879;-74
2024/03/21 04:28:55;;;;;;;;;;;;;;;16.00;66.06;101377.38;5051330;27;96907;-74
2024/03/21 04:31:23;;;;;;;;;;;;;;;16.01;65.32;101372.91;5049264;27;96847;-73
2024/03/21 04:33:48;;;;;;;;;;;;;;;16.07;64.41;101373.47;5050484;27;99069;-73
2024/03/21 04:36:14;;;;;;;;;;;;;;;16.07;65.18;101383.28;5046390;27;99230;-73
2024/03/21 04:38:42;;;;;;;;;;;;;;;16.01;64.82;101376.44;5051672;27;97103;-74
2024/03/21 04:41:08;;;;;;;;;;;;;;;16.13;64.86;101369.63;5050455;27;97350;-75
2024/03/21 04:43:34;;;;;;;;;;;;;;;16.08;64.72;101377.00;5047844;27;99016;-74
2024/03/21 04:46:00;;;;;;;;;;;;;;;16.11;64.86;101369.72;5050969;27;98717;-74
2024/03/21 04:48:27;;;;;;;;;;;;;;;16.02;64.75;101371.94;5048032;27;96910;-74
2024/03/21 04:50:52;;;;;;;;;;;;;;;15.87;68.03;101366.44;5044108;27;96923;-74
2024/03/21 04:53:18;;;;;;;;;;;;;;;16.03;65.93;101373.66;5051057;27;98829;-74
2024/03/21 04:55:45;;;;;;;;;;;;;;;15.99;65.46;101375.63;5047899;27;98804;-73
2024/03/21 04:58:11;;;;;;;;;;;;;;;15.89;66.85;101375.19;5054129;27;97058;-73
2024/03/21 05:00:37;;;;;;;;;;;;;;;15.85;66.31;101370.09;5049068;27;96918;-73
2024/03/21 05:03:04;;;;;;;;;;;;;;;15.77;67.27;101364.25;5051535;27;98862;-74
2024/03/21 05:05:29;;;;;;;;;;;;;;;15.81;67.34;101365.84;5051104;27;99559;-75
2024/03/21 05:07:56;;;;;;;;;;;;;;;15.66;68.39;101353.25;5051138;27;98686;-74
2024/03/21 05:10:21;;;;;;;;;;;;;;;15.60;68.44;101350.88;5047067;27;96962;-74
2024/03/21 05:12:48;;;;;;;;;;;;;;;15.70;68.29;101353.03;5051046;27;98986;-74
2024/03/21 05:15:14;;;;;;;;;;;;;;;15.75;69.72;101360.81;5047887;27;99705;-73
2024/03/21 05:17:40;;;;;;;;;;;;;;;15.65;69.60;101354.19;5050441;27;97267;-73
2024/03/21 05:20:06;;;;;;;;;;;;;;;15.72;69.14;101344.97;5051772;27;96928;-73
2024/03/21 05:22:33;;;;;;;;;;;;;;;15.78;68.97;101350.00;5051914;27;99655;-72
2024/03/21 05:24:58;;;;;;;;;;;;;;;15.76;69.37;101343.88;5044612;27;99235;-73
2024/03/21 05:27:25;;;;;;;;;;;;;;;15.53;70.42;101337.84;5053601;27;96814;-74
2024/03/21 05:29:52;;;;;;;;;;;;;;;15.76;69.25;101336.75;5047577;27;96972;-74
2024/03/21 05:32:18;;;;;;;;;;;;;;;15.67;69.74;101344.31;5051315;27;99441;-74
2024/03/21 05:34:43;;;;;;;;;;;;;;;15.67;69.36;101347.00;5046738;27;99288;-74
2024/03/21 05:37:10;;;;;;;;;;;;;;;15.79;68.78;101346.41;5051463;27;96851;-74
2024/03/21 05:39:35;;;;;;;;;;;;;;;15.71;68.75;101351.22;5045641;27;97329;-74
2024/03/21 05:42:01;;;;;;;;;;;;;;;15.82;66.99;101344.44;5048883;27;98947;-75
2024/03/21 05:44:27;;;;;;;;;;;;;;;15.93;66.58;101347.47;5051307;27;98839;-74
2024/03/21 05:46:54;;;;;;;;;;;;;;;15.81;66.78;101349.88;5051216;27;97758;-74
2024/03/21 05:49:20;;;;;;;;;;;;;;;15.82;66.60;101351.56;5050365;27;96827;-74
2024/03/21 05:51:48;;;;;;;;;;;;;;;15.84;66.11;101349.72;5048636;27;98864;-74
2024/03/21 05:54:13;;;;;;;;;;;;;;;15.81;65.76;101349.88;5047213;27;98879;-74
2024/03/21 05:56:40;;;;;;;;;;;;;;;15.85;66.57;101354.09;5052536;27;97065;-74
2024/03/21 05:59:05;;;;;;;;;;;;;;;15.94;66.32;101354.53;5052053;27;96845;-74
2024/03/21 06:01:33;;;;;;;;;;;;;;;15.90;65.75;101357.41;5048167;27;98398;-74
2024/03/21 06:04:00;;;;;;;;;;;;;;;15.96;65.66;101351.78;5045478;27;98986;-73
2024/03/21 06:06:26;;;;;;;;;;;;;;;16.01;65.17;101352.44;5051147;27;96779;-74
2024/03/21 06:08:51;;;;;;;;;;;;;;;16.01;65.97;101349.78;5050898;27;97386;-74
2024/03/21 06:11:18;;;;;;;;;;;;;;;16.01;66.78;101349.78;5045312;27;99226;-74
2024/03/21 06:13:43;;;;;;;;;;;;;;;16.18;66.18;101340.94;5051553;27;99079;-74
2024/03/21 06:16:12;;;;;;;;;;;;;;;16.13;66.59;101341.19;5042501;27;97066;-72
2024/03/21 06:18:37;;;;;;;;;;;;;;;16.00;66.34;101345.38;5051598;27;96992;-74
2024/03/21 06:21:05;;;;;;;;;;;;;;;16.18;65.77;101341.81;5050306;27;100559;-75
2024/03/21 06:23:30;;;;;;;;;;;;;;;16.38;65.95;101342.63;5046608;27;98914;-75
2024/03/21 06:25:57;;;;;;;;;;;;;;;16.37;66.02;101340.88;5050005;27;96841;-75
2024/03/21 06:34:29;;;;;;;;;;;;;;;16.20;66.91;101339.06;5040643;27;96933;-74
2024/03/21 06:36:56;;;;;;;;;;;;;;;16.20;67.08;101339.94;5054107;27;96863;-74
2024/03/21 06:39:22;;;;;;;;;;;;;;;15.95;67.41;101350.91;5054375;27;97220;-73
2024/03/21 06:41:48;;;;;;;;;;;;;;;15.98;66.47;101349.03;5054300;27;98925;-73
2024/03/21 06:44:14;;;;;;;;;;;;;;;16.10;65.51;101359.97;5054778;27;98982;-74
2024/03/21 06:46:40;;;;;;;;;;;;;;;15.96;65.13;101367.78;5053256;27;98085;-73
2024/03/21 06:49:07;;;;;;;;;;;;;;;15.75;65.58;101368.81;5050110;27;97114;-74
2024/03/21 06:51:32;;;;;;;;;;;;;;;15.80;66.29;101365.00;5049463;27;98935;-75
2024/03/21 06:54:00;;;;;;;;;;;;;;;15.84;66.38;101385.22;5052262;27;97699;-74
2024/03/21 06:56:26;;;;;;;;;;;;;;;16.25;65.21;101399.25;5053129;27;96691;-74
2024/03/21 06:58:52;;;;;;;;;;;;;;;16.50;64.17;101419.38;5051937;27;98060;-74
2024/03/21 07:01:18;;;;;;;;;;;;;;;16.61;64.38;101419.72;5051528;27;100649;-74
2024/03/21 07:03:45;;;;;;;;;;;;;;;16.57;64.07;101412.78;5052543;27;99220;-74
2024/03/21 07:06:10;;;;;;;;;;;;;;;16.36;65.76;101412.03;5051572;27;97181;-74
2024/03/21 07:08:36;;;;;;;;;;;;;;;16.07;67.42;101426.78;5047188;27;100322;-74
2024/03/21 07:11:04;;;;;;;;;;;;;;;15.70;68.67;101427.63;5051314;27;101792;-74
2024/03/21 07:13:30;;;;;;;;;;;;;;;15.88;68.41;101433.94;5052571;27;98813;-74
2024/03/21 07:15:55;;;;;;;;;;;;;;;16.17;66.99;101436.06;5053354;27;96849;-74
2024/03/21 07:18:22;;;;;;;;;;;;;;;16.13;67.54;101442.50;5049918;27;97326;-73
2024/03/21 07:20:53;;;;;;;;;;;;;;;16.48;67.47;101443.44;5042307;27;97826;-74
2024/03/21 07:23:20;;;;;;;;;;;;;;;16.49;66.63;101449.63;5050016;27;98971;-74
2024/03/21 07:25:45;;;;;;;;;;;;;;;16.42;67.94;101451.75;5041391;27;99212;-74
2024/03/21 07:28:13;;;;;;;;;;;;;;;16.65;67.51;101442.66;5055681;27;96836;-74
2024/03/21 07:30:38;;;;;;;;;;;;;;;16.66;67.46;101436.38;5049651;27;98872;-73
2024/03/21 07:33:05;;;;;;;;;;;;;;;16.74;68.39;101447.53;5049646;27;98729;-74
2024/03/21 07:35:31;;;;;;;;;;;;;;;16.56;68.92;101451.06;5049725;27;97481;-74
2024/03/21 07:37:57;;;;;;;;;;;;;;;16.40;70.19;101450.97;5052470;27;96621;-74
2024/03/21 07:40:22;;;;;;;;;;;;;;;16.18;70.62;101452.94;5052346;27;99478;-73
2024/03/21 07:42:49;;;;;;;;;;;;;;;16.04;70.70;101461.56;5053771;27;99077;-74
2024/03/21 07:45:16;;;;;;;;;;;;;;;15.56;74.08;101463.84;5053728;27;97262;-74
2024/03/21 07:47:43;;;;;;;;;;;;;;;15.63;73.97;101478.59;5050595;27;97108;-74
2024/03/21 07:50:09;;;;;;;;;;;;;;;15.12;76.05;101487.88;5047739;27;98919;-74
2024/03/21 07:52:35;;;;;;;;;;;;;;;14.78;78.42;101496.41;5053833;27;99367;-74
2024/03/21 07:55:01;;;;;;;;;;;;;;;14.88;79.36;101510.22;5050937;27;96834;-74
2024/03/21 07:57:27;;;;;;;;;;;;;;;14.83;80.65;101504.22;5045544;27;97240;-74
2024/03/21 07:59:52;;;;;;;;;;;;;;;15.01;80.01;101496.34;5045959;27;102174;-74
2024/03/21 08:02:21;;;;;;;;;;;;;;;14.34;82.95;101508.81;5044349;27;99280;-74
2024/03/21 08:04:46;;;;;;;;;;;;;;;14.47;83.78;101503.91;5049842;27;96964;-74
2024/03/21 08:07:13;;;;;;;;;;;;;;;14.82;82.47;101510.47;5053339;27;96815;-75
2024/03/21 08:09:38;;;;;;;;;;;;;;;14.96;81.67;101502.78;5050406;27;97755;-74
2024/03/21 08:12:04;;;;;;;;;;;;;;;15.06;80.98;101505.00;5051817;27;98876;-74
2024/03/21 08:14:30;;;;;;;;;;;;;;;15.22;79.68;101499.03;5052878;27;96693;-75
2024/03/21 08:16:56;;;;;;;;;;;;;;;15.10;81.59;101495.94;5053293;27;97035;-75
2024/03/21 08:19:23;;;;;;;;;;;;;;;15.14;81.79;101502.00;5053317;27;98933;-74
2024/03/21 08:21:49;;;;;;;;;;;;;;;15.05;81.58;101497.94;5051814;27;98050;-75
2024/03/21 08:24:14;;;;;;;;;;;;;;;15.28;81.11;101486.31;5051140;27;96869;-75
2024/03/21 08:26:41;;;;;;;;;;;;;;;15.35;81.85;101490.44;5053723;27;96922;-75
2024/03/21 08:29:06;;;;;;;;;;;;;;;15.07;82.34;101496.09;5052539;27;99102;-75
2024/03/21 08:31:32;;;;;;;;;;;;;;;15.21;82.26;101497.28;5053371;27;97870;-74
2024/03/21 08:33:58;;;;;;;;;;;;;;;15.22;82.41;101505.22;5052312;27;96986;-76
2024/03/21 08:36:25;;;;;;;;;;;;;;;14.86;85.01;101507.63;5051644;27;96933;-75
2024/03/21 08:38:51;;;;;;;;;;;;;;;14.69;86.54;101508.31;5045048;27;99011;-75
2024/03/21 08:41:17;;;;;;;;;;;;;;;14.65;86.45;101521.78;5052422;27;98966;-75
2024/03/21 08:43:43;;;;;;;;;;;;;;;14.29;88.13;101521.41;5042729;27;97304;-74
2024/03/21 08:46:09;;;;;;;;;;;;;;;14.25;90.07;101518.00;5052795;27;97016;-74
2024/03/21 08:48:36;;;;;;;;;;;;;;;14.48;89.52;101522.47;5051918;27;98770;-74
2024/03/21 08:51:02;;;;;;;;;;;;;;;14.40;89.85;101524.53;5043916;27;98561;-74
2024/03/21 08:53:29;;;;;;;;;;;;;;;14.86;88.28;101517.38;5052511;27;96877;-74
2024/03/21 08:55:56;;;;;;;;;;;;;;;15.11;86.47;101495.00;5052965;27;96911;-75
2024/03/21 08:58:21;;;;;;;;;;;;;;;15.55;85.30;101502.94;5050008;27;99351;-74
2024/03/21 09:00:47;;;;;;;;;;;;;;;15.71;83.59;101493.31;5051000;27;98889;-73
2024/03/21 09:03:14;;;;;;;;;;;;;;;15.59;83.51;101504.50;5054194;27;96727;-74
2024/03/21 09:05:40;;;;;;;;;;;;;;;15.72;82.90;101499.50;5052939;27;97156;-74
2024/03/21 09:08:05;;;;;;;;;;;;;;;15.70;83.99;101501.34;5052180;27;99355;-75
2024/03/21 09:10:33;;;;;;;;;;;;;;;15.70;83.35;101507.56;5048535;27;101851;-74
2024/03/21 09:12:59;;;;;;;;;;;;;;;15.67;84.33;101504.19;5048665;27;97114;-75
2024/03/21 09:15:25;;;;;;;;;;;;;;;15.73;83.90;101502.09;5053074;27;96937;-74
2024/03/21 09:17:53;;;;;;;;;;;;;;;15.65;84.55;101503.38;5045780;27;98227;-71
2024/03/21 09:20:20;;;;;;;;;;;;;;;15.75;84.17;101502.03;5050941;27;100707;-70
2024/03/21 09:22:45;;;;;;;;;;;;;;;16.01;83.10;101496.38;5047697;27;96804;-72
2024/03/21 09:25:11;;;;;;;;;;;;;;;16.03;82.95;101496.28;5045274;27;96791;-70
2024/03/21 09:27:38;;;;;;;;;;;;;;;16.21;82.45;101492.78;5052956;27;99582;-70
2024/03/21 09:30:04;;;;;;;;;;;;;;;16.34;81.97;101472.63;5046238;27;98749;-71
2024/03/21 09:32:30;;;;;;;;;;;;;;;16.28;82.68;101470.22;5047178;27;97116;-72
2024/03/21 09:34:59;;;;;;;;;;;;;;;16.38;81.44;101473.31;5051162;27;97079;-75
2024/03/21 09:37:25;;;;;;;;;;;;;;;16.38;81.86;101468.84;5046408;27;98889;-72
2024/03/21 09:39:51;;;;;;;;;;;;;;;16.51;82.21;101466.44;5046975;27;101775;-72
2024/03/21 09:42:17;;;;;;;;;;;;;;;16.65;81.55;101453.34;5049433;27;96876;-72
2024/03/21 09:44:48;;;;;;;;;;;;;;;16.75;80.53;101443.91;5048076;27;96878;-72
2024/03/21 09:47:13;;;;;;;;;;;;;;;16.83;79.44;101443.53;5050902;27;98867;-71
2024/03/21 09:49:40;;;;;;;;;;;;;;;17.01;78.25;101432.78;5042448;27;101519;-71
2024/03/21 09:52:07;;;;;;;;;;;;;;;17.03;77.78;101428.25;5051904;27;96810;-71
2024/03/21 09:54:35;;;;;;;;;;;;;;;17.18;77.50;101415.91;5040728;27;98164;-71
2024/03/21 09:57:00;;;;;;;;;;;;;;;17.51;76.64;101403.44;5048960;27;97881;-72
2024/03/21 09:59:26;;;;;;;;;;;;;;;17.55;75.78;101420.16;5045987;27;98956;-71
2024/03/21 10:01:53;;;;;;;;;;;;;;;17.58;75.78;101406.63;5045592;27;97051;-71
2024/03/21 10:04:19;;;;;;;;;;;;;;;17.75;75.68;101411.94;5050072;27;97797;-71
2024/03/21 10:06:47;;;;;;;;;;;;;;;17.81;75.41;101416.97;5056014;27;97678;-71
2024/03/21 10:09:14;;;;;;;;;;;;;;;18.07;74.29;101410.16;5054121;27;97676;-72
2024/03/21 10:11:39;;;;;;;;;;;;;;;18.05;73.81;101412.03;5054810;27;97195;-70
2024/03/21 10:14:06;;;;;;;;;;;;;;;18.26;72.88;101413.53;5055348;27;96776;-70
2024/03/21 10:16:31;;;;;;;;;;;;;;;18.13;73.12;101408.94;5050088;27;98961;-71
2024/03/21 10:19:00;;;;;;;;;;;;;;;18.30;72.81;101409.75;5048392;27;99583;-72
2024/03/21 10:21:26;;;;;;;;;;;;;;;18.39;72.79;101405.66;5054282;27;97361;-71
2024/03/21 10:24:00;;;;;;;;;;;;;;;18.51;71.99;101396.91;5055042;27;96837;-71
2024/03/21 10:26:26;;;;;;;;;;;;;;;18.87;71.43;101399.28;5046465;27;99289;-71
2024/03/21 10:28:53;;;;;;;;;;;;;;;18.90;70.48;101400.94;5061721;27;100605;-70
2024/03/21 10:31:20;;;;;;;;;;;;;;;19.28;70.03;101391.44;5054671;27;96752;-71
2024/03/21 10:33:47;;;;;;;;;;;;;;;18.78;67.21;101398.94;5054755;27;96989;-70
2024/03/21 10:36:14;;;;;;;;;;;;;;;19.01;66.86;101401.13;5053106;27;98912;-71
2024/03/21 10:38:41;;;;;;;;;;;;;;;19.04;65.75;101407.16;5051680;27;98882;-70
2024/03/21 10:41:08;;;;;;;;;;;;;;;19.02;65.56;101416.25;5048510;27;97249;-70
2024/03/21 10:43:35;;;;;;;;;;;;;;;19.10;65.88;101405.91;5052663;27;97247;-71
2024/03/21 10:46:01;;;;;;;;;;;;;;;18.98;64.50;101403.97;5051839;27;98962;-71
2024/03/21 10:48:29;;;;;;;;;;;;;;;19.22;64.18;101405.19;5050072;27;98841;-71
2024/03/21 10:50:54;;;;;;;;;;;;;;;18.76;65.31;101419.63;5052826;27;96845;-71
2024/03/21 10:53:22;;;;;;;;;;;;;;;18.26;67.29;101421.53;5055013;27;96946;-72
2024/03/21 10:55:49;;;;;;;;;;;;;;;17.86;69.25;101424.72;5054600;27;101374;-72
2024/03/21 10:58:16;;;;;;;;;;;;;;;18.02;70.00;101433.63;5049831;27;99568;-73
2024/03/21 11:00:48;;;;;;;;;;;;;;;17.63;70.77;101442.00;5046505;27;96749;-71
2024/03/21 11:03:15;;;;;;;;;;;;;;;17.77;71.52;101446.63;5050916;27;97742;-71
2024/03/21 11:05:41;;;;;;;;;;;;;;;17.68;71.14;101447.09;5053989;27;97902;-72
2024/03/21 11:08:24;;;;;;;;;;;;;;;17.75;72.43;101452.03;5054483;27;101723;-72
2024/03/21 11:10:51;;;;;;;;;;;;;;;17.78;70.32;101446.53;5052049;27;97488;-72
2024/03/21 11:13:18;;;;;;;;;;;;;;;17.76;72.02;101450.25;5054821;27;96853;-71
2024/03/21 11:15:43;;;;;;;;;;;;;;;17.24;71.56;101458.31;5053276;27;99773;-72
2024/03/21 11:18:10;;;;;;;;;;;;;;;17.69;72.03;101459.53;5052618;27;99991;-72
2024/03/21 11:20:36;;;;;;;;;;;;;;;17.79;71.00;101458.94;5053370;27;96767;-72
2024/03/21 11:23:02;;;;;;;;;;;;;;;18.07;70.69;101463.66;5054710;27;96892;-71
2024/03/21 11:25:28;;;;;;;;;;;;;;;18.11;67.51;101467.03;5050754;27;98849;-70
2024/03/21 11:27:56;;;;;;;;;;;;;;;18.00;67.86;101469.41;5061306;27;99219;-72
2024/03/21 11:30:21;;;;;;;;;;;;;;;17.95;68.46;101463.47;5053132;27;97128;-73
2024/03/21 11:32:47;;;;;;;;;;;;;;;17.59;71.62;101460.94;5054476;27;97552;-72
2024/03/21 11:35:13;;;;;;;;;;;;;;;18.07;70.78;101458.28;5051807;27;99221;-72
2024/03/21 11:37:41;;;;;;;;;;;;;;;18.41;68.77;101461.75;5053687;27;99127;-71
2024/03/21 11:40:07;;;;;;;;;;;;;;;19.47;65.84;101459.06;5052741;27;96909;-71
2024/03/21 11:42:34;;;;;;;;;;;;;;;19.56;64.07;101459.44;5054894;27;96829;-72
2024/03/21 11:45:02;;;;;;;;;;;;;;;19.56;64.17;101459.44;5053010;27;98908;-71
2024/03/21 11:47:28;;;;;;;;;;;;;;;19.20;64.82;101466.03;5054041;27;101483;-71
2024/03/21 11:49:53;;;;;;;;;;;;;;;18.89;65.46;101458.97;5052153;27;96987;-71
2024/03/21 11:52:20;;;;;;;;;;;;;;;18.91;65.25;101458.84;5055235;27;96903;-71
2024/03/21 11:54:46;;;;;;;;;;;;;;;19.16;63.65;101467.19;5053957;27;102404;-71
2024/03/21 11:57:13;;;;;;;;;;;;;;;19.31;62.75;101471.59;5052902;27;98654;-72
2024/03/21 11:59:41;;;;;;;;;;;;;;;19.17;63.52;101468.03;5052566;27;96960;-71
2024/03/21 12:02:10;;;;;;;;;;;;;;;19.26;62.55;101472.84;5050972;27;97338;-72
2024/03/21 12:04:35;;;;;;;;;;;;;;;18.83;62.73;101471.84;5052774;27;99078;-71
2024/03/21 12:07:02;;;;;;;;;;;;;;;18.83;62.93;101475.41;5054241;27;98674;-72
2024/03/21 12:09:27;;;;;;;;;;;;;;;19.33;61.48;101467.03;5052365;27;97253;-73
2024/03/21 12:11:53;;;;;;;;;;;;;;;19.49;60.24;101462.47;5053312;27;96790;-71
2024/03/21 12:14:19;;;;;;;;;;;;;;;19.72;60.33;101470.94;5051778;27;97663;-71
2024/03/21 12:16:45;;;;;;;;;;;;;;;19.73;60.35;101478.03;5046861;27;99221;-72
2024/03/21 12:19:12;;;;;;;;;;;;;;;19.82;60.32;101466.72;5052620;27;96971;-72
2024/03/21 12:21:38;;;;;;;;;;;;;;;19.47;61.79;101461.72;5053109;27;97363;-72
2024/03/21 12:24:04;;;;;;;;;;;;;;;19.84;61.45;101467.47;5052862;27;98248;-71
2024/03/21 12:26:30;;;;;;;;;;;;;;;19.03;62.43;101450.97;5053144;27;98679;-71
2024/03/21 12:28:56;;;;;;;;;;;;;;;18.88;64.13;101457.25;5053085;27;97450;-71
2024/03/21 12:31:23;;;;;;;;;;;;;;;18.79;63.66;101451.56;5053156;27;97381;-71
2024/03/21 12:33:52;;;;;;;;;;;;;;;18.30;65.47;101449.88;5045737;27;98855;-72
2024/03/21 12:36:19;;;;;;;;;;;;;;;18.62;65.43;101455.22;5052836;27;98798;-71
2024/03/21 12:38:45;;;;;;;;;;;;;;;18.52;65.23;101448.63;5052060;27;97309;-70
2024/03/21 12:41:14;;;;;;;;;;;;;;;18.63;65.35;101452.47;5045862;27;97257;-71
2024/03/21 12:43:40;;;;;;;;;;;;;;;18.68;65.50;101466.44;5052773;27;98914;-72